Roosevelt, Oklahoma
Current Conditions -  °F | °C
As of 10:53 AM on Friday 19 Dec 2014 (Local Time) from KHBR Reporting Station
Haze Haze  
Wind Chill: 33°   Ceiling: 600
Heat Index: 39°   Visibility: 4mi
Dew Point: 37°   Wind: 8mph
Humidity: 93%   Direction: 70°ENE
Pressure: 30.23"   Gusts: NA
Location:  34.85°N, 99.02°W
Report Text: KHBR 191653Z AUTO 07007KT 4SM BR OVC006 04/03 A3023 RMK AO2 SLP245 T00390028
Loading
Personal Weather Stations






























Interactive Weather Map New forecast layout! Learn more

10-Day Weather Forecast

Advertisements
Track Severe Weather on mobile